createdAt,value
2022-11-04T00:01:47.965Z,23.55
2022-11-04T00:04:18.201Z,23.17
2022-11-04T00:06:48.312Z,21.88
2022-11-04T00:09:20.217Z,20.73
2022-11-04T00:12:06.530Z,23.02
2022-11-04T00:14:35.755Z,23.08
2022-11-04T00:17:22.982Z,21.95
2022-11-04T00:20:10.220Z,23.85
2022-11-04T00:22:58.121Z,18.40
2022-11-04T00:25:43.872Z,22.48
2022-11-04T00:28:31.397Z,25.42
2022-11-04T00:31:20.293Z,21.23
2022-11-04T00:33:48.812Z,21.42
2022-11-04T00:36:17.021Z,19.65
2022-11-04T00:38:46.826Z,16.10
2022-11-04T00:41:28.032Z,18.00
2022-11-04T00:43:57.894Z,18.83
2022-11-04T00:46:26.282Z,24.23
2022-11-04T00:48:54.699Z,19.10
2022-11-04T00:51:23.194Z,19.33
2022-11-04T00:53:53.250Z,18.77
2022-11-04T00:56:21.870Z,19.92
2022-11-04T00:58:50.289Z,19.13
2022-11-04T01:01:20.144Z,20.85
2022-11-04T01:03:49.693Z,18.35
2022-11-04T01:06:18.468Z,17.52
2022-11-04T01:08:46.883Z,18.00
2022-11-04T01:11:17.188Z,16.77
2022-11-04T01:13:45.253Z,20.38
2022-11-04T01:16:14.136Z,17.10
2022-11-04T01:18:42.363Z,17.80
2022-11-04T01:21:14.253Z,17.20
2022-11-04T01:23:43.220Z,20.38
2022-11-04T01:26:14.104Z,15.88
2022-11-04T01:28:43.718Z,15.20
2022-11-04T01:31:14.346Z,14.93
2022-11-04T01:33:42.668Z,17.55
2022-11-04T01:36:12.431Z,16.27
2022-11-04T01:38:40.615Z,19.75
2022-11-04T01:41:10.316Z,15.48
2022-11-04T01:43:47.946Z,16.70
2022-11-04T01:46:24.195Z,16.23
2022-11-04T01:48:53.327Z,16.77
2022-11-04T01:51:22.769Z,14.45
2022-11-04T01:53:53.091Z,17.17
2022-11-04T01:56:21.582Z,15.43
2022-11-04T01:58:54.845Z,17.20
2022-11-04T02:01:23.370Z,19.52
2022-11-04T02:03:54.435Z,15.82
2022-11-04T02:06:23.779Z,17.27
2022-11-04T02:08:52.020Z,20.00
2022-11-04T02:11:37.681Z,15.18
2022-11-04T02:14:07.144Z,16.48
2022-11-04T02:16:41.766Z,16.17
2022-11-04T02:19:26.521Z,26.90
2022-11-04T02:22:21.372Z,20.13
2022-11-04T02:25:09.511Z,16.33
2022-11-04T02:27:50.259Z,15.45
2022-11-04T02:30:20.433Z,14.37
2022-11-04T02:33:02.065Z,18.73
2022-11-04T02:35:37.982Z,15.95
2022-11-04T02:38:14.182Z,17.60
2022-11-04T02:40:45.284Z,16.77
2022-11-04T02:45:45.993Z,14.43
2022-11-04T02:48:21.516Z,16.33
2022-11-04T02:50:53.811Z,17.25
2022-11-04T02:53:26.072Z,16.67
2022-11-04T02:55:56.344Z,15.20
2022-11-04T02:58:30.248Z,14.20
2022-11-04T03:01:01.271Z,17.02
2022-11-04T03:03:32.667Z,23.10
2022-11-04T03:06:02.052Z,15.60
2022-11-04T03:08:33.262Z,16.63
2022-11-04T03:11:06.192Z,14.07
2022-11-04T03:13:38.976Z,15.52
2022-11-04T03:16:11.654Z,17.13
2022-11-04T03:18:44.013Z,14.73
2022-11-04T03:21:14.582Z,15.63
2022-11-04T03:23:42.981Z,15.70
2022-11-04T03:26:14.658Z,15.25
2022-11-04T03:28:47.712Z,15.75
2022-11-04T03:31:23.259Z,14.48
2022-11-04T03:33:52.977Z,14.88
2022-11-04T03:36:22.337Z,18.05
2022-11-04T03:38:51.155Z,16.90
2022-11-04T03:41:24.302Z,14.95
2022-11-04T03:43:52.724Z,16.52
2022-11-04T03:46:22.865Z,15.30
2022-11-04T03:48:52.863Z,14.10
2022-11-04T03:51:21.084Z,14.65
2022-11-04T03:53:49.537Z,13.80
2022-11-04T03:56:37.276Z,15.07
2022-11-04T03:59:18.766Z,16.67
2022-11-04T04:01:52.973Z,18.25
2022-11-04T04:04:27.081Z,16.48
2022-11-04T04:06:59.459Z,18.27
2022-11-04T04:09:32.930Z,16.77
2022-11-04T04:12:05.532Z,16.27
2022-11-04T04:14:42.157Z,15.75
2022-11-04T04:17:17.372Z,16.48
2022-11-04T04:19:48.504Z,15.43
2022-11-04T04:22:19.902Z,14.48
2022-11-04T04:25:07.423Z,13.05
2022-11-04T04:27:36.488Z,12.18
2022-11-04T04:30:08.051Z,19.85
2022-11-04T04:32:40.441Z,15.15
2022-11-04T04:35:27.063Z,17.95
2022-11-04T04:38:17.043Z,14.05
2022-11-04T04:41:06.108Z,15.57
2022-11-04T04:43:51.512Z,12.38
2022-11-04T04:46:20.291Z,15.27
2022-11-04T04:48:49.928Z,14.45
2022-11-04T04:51:18.272Z,14.65
2022-11-04T04:53:46.519Z,14.88
2022-11-04T04:56:14.878Z,15.18
2022-11-04T04:58:43.100Z,14.32
2022-11-04T05:01:12.085Z,18.67
2022-11-04T05:03:44.972Z,16.65
2022-11-04T05:06:15.306Z,18.52
2022-11-04T05:08:43.390Z,15.18
2022-11-04T05:11:12.096Z,14.50
2022-11-04T05:13:40.437Z,15.80
2022-11-04T05:16:10.857Z,15.35
2022-11-04T05:18:39.026Z,16.15
2022-11-04T05:21:08.624Z,15.30
2022-11-04T05:23:38.149Z,15.43
2022-11-04T05:26:07.008Z,18.05
2022-11-04T05:28:35.361Z,15.73
2022-11-04T05:31:05.227Z,13.52
2022-11-04T05:33:34.232Z,15.43
2022-11-04T05:36:09.356Z,14.38
2022-11-04T05:38:39.330Z,13.73
2022-11-04T05:41:08.723Z,11.10
2022-11-04T05:43:36.943Z,14.70
2022-11-04T05:46:05.752Z,15.45
2022-11-04T05:48:40.043Z,13.05
2022-11-04T05:51:08.915Z,14.43
2022-11-04T05:53:38.297Z,13.93
2022-11-04T05:56:07.068Z,15.43
2022-11-04T05:58:35.168Z,12.15
2022-11-04T06:01:15.335Z,13.07
2022-11-04T06:03:43.782Z,13.02
2022-11-04T06:06:12.087Z,12.23
2022-11-04T06:08:45.175Z,14.43
2022-11-04T06:11:14.052Z,10.75
2022-11-04T06:13:42.276Z,14.65
2022-11-04T06:16:10.737Z,12.32
2022-11-04T06:18:38.847Z,12.32
2022-11-04T06:21:25.275Z,13.88
2022-11-04T06:23:56.812Z,12.90
2022-11-04T06:26:28.251Z,14.00
2022-11-04T06:31:24.849Z,11.65
2022-11-04T06:33:52.935Z,19.20
2022-11-04T06:36:21.413Z,22.75
2022-11-04T06:38:49.442Z,13.32
2022-11-04T06:41:19.810Z,13.40
2022-11-04T06:43:47.936Z,13.85
2022-11-04T06:46:27.573Z,15.80
2022-11-04T06:48:56.989Z,17.10
2022-11-04T06:51:26.250Z,13.02
2022-11-04T06:53:54.581Z,12.88
2022-11-04T06:56:24.637Z,11.95
2022-11-04T06:58:53.598Z,16.55
2022-11-04T07:01:27.029Z,12.63
2022-11-04T07:03:57.841Z,11.65
2022-11-04T07:06:29.948Z,11.20
2022-11-04T07:09:00.141Z,13.77
2022-11-04T07:11:31.732Z,10.85
2022-11-04T07:14:00.147Z,11.00
2022-11-04T07:16:28.602Z,12.43
2022-11-04T07:18:56.754Z,10.13
2022-11-04T07:21:25.228Z,11.43
2022-11-04T07:23:53.308Z,28.23
2022-11-04T07:26:22.007Z,17.77
2022-11-04T07:28:51.433Z,11.50
2022-11-04T07:31:20.376Z,11.10
2022-11-04T07:33:50.152Z,13.27
2022-11-04T07:36:19.416Z,12.57
2022-11-04T07:38:47.884Z,11.80
2022-11-04T07:41:16.923Z,11.35
2022-11-04T07:43:48.901Z,10.60
2022-11-04T07:46:19.805Z,12.05
2022-11-04T07:48:48.269Z,11.73
2022-11-04T07:51:19.034Z,10.02
2022-11-04T07:53:47.442Z,11.30
2022-11-04T07:56:16.127Z,10.23
2022-11-04T07:58:44.555Z,10.27
2022-11-04T08:01:15.317Z,14.93
2022-11-04T08:03:44.815Z,15.95
2022-11-04T08:06:14.733Z,9.20
2022-11-04T08:08:43.638Z,12.82
2022-11-04T08:11:17.778Z,14.10
2022-11-04T08:13:47.212Z,12.85
2022-11-04T08:16:17.110Z,14.80
2022-11-04T08:18:47.607Z,12.75
2022-11-04T08:21:16.736Z,12.60
2022-11-04T08:23:46.255Z,11.38
2022-11-04T08:26:17.268Z,11.60
2022-11-04T08:28:45.604Z,12.00
2022-11-04T08:31:16.680Z,12.10
2022-11-04T08:33:46.784Z,13.10
2022-11-04T08:36:17.057Z,12.63
2022-11-04T08:38:45.322Z,13.85
2022-11-04T08:41:15.465Z,11.63
2022-11-04T08:43:43.780Z,12.95
2022-11-04T08:46:12.587Z,10.15
2022-11-04T08:48:42.311Z,13.25
2022-11-04T08:51:17.743Z,13.65
2022-11-04T08:53:45.959Z,13.10
2022-11-04T08:56:17.418Z,12.85
2022-11-04T08:58:45.612Z,16.33
2022-11-04T09:01:14.632Z,12.13
2022-11-04T09:03:43.335Z,13.63
2022-11-04T09:06:15.865Z,12.68
2022-11-04T09:08:44.674Z,15.80
2022-11-04T09:11:15.199Z,15.15
2022-11-04T09:13:43.837Z,14.48
2022-11-04T09:16:13.694Z,17.25
2022-11-04T09:18:42.066Z,15.65
2022-11-04T09:21:11.346Z,16.25
2022-11-04T09:23:40.984Z,14.68
2022-11-04T09:26:11.854Z,15.38
2022-11-04T09:28:40.498Z,22.02
2022-11-04T09:31:10.239Z,19.90
2022-11-04T09:33:38.855Z,16.33
2022-11-04T09:36:09.165Z,14.50
2022-11-04T09:38:38.335Z,14.50
2022-11-04T09:41:32.060Z,14.00
2022-11-04T09:44:03.625Z,16.05
2022-11-04T09:46:33.528Z,12.40
2022-11-04T09:49:04.148Z,11.90
2022-11-04T09:51:53.038Z,16.40
2022-11-04T09:54:24.216Z,12.80
2022-11-04T09:56:56.583Z,13.13
2022-11-04T09:59:27.504Z,13.60
2022-11-04T10:02:05.189Z,15.93
2022-11-04T10:04:44.913Z,13.20
2022-11-04T10:07:23.353Z,15.65
2022-11-04T10:09:59.404Z,14.00
2022-11-04T10:12:43.429Z,16.02
2022-11-04T10:15:29.640Z,13.57
2022-11-04T10:18:11.321Z,13.82
2022-11-04T10:20:47.000Z,9.32
2022-11-04T10:23:22.496Z,16.38
2022-11-04T10:25:53.626Z,17.95
2022-11-04T10:30:52.553Z,14.02
2022-11-04T10:33:26.399Z,12.13
2022-11-04T10:35:58.516Z,14.52
2022-11-04T10:38:34.304Z,11.55
2022-11-04T10:41:07.086Z,14.93
2022-11-04T10:43:38.869Z,15.93
2022-11-04T10:46:35.727Z,16.67
2022-11-04T10:49:31.213Z,18.55
2022-11-04T10:51:59.484Z,18.85
2022-11-04T10:54:28.392Z,11.93
2022-11-04T10:56:57.644Z,16.00
2022-11-04T10:59:29.415Z,17.48
2022-11-04T11:01:58.774Z,14.38
2022-11-04T11:04:30.353Z,15.60
2022-11-04T11:07:00.333Z,11.85
2022-11-04T11:09:30.027Z,9.40
2022-11-04T11:12:01.271Z,8.70
2022-11-04T11:14:36.895Z,9.85
2022-11-04T11:17:26.416Z,11.48
2022-11-04T11:19:59.353Z,12.95
2022-11-04T11:22:37.836Z,11.55
2022-11-04T11:25:27.396Z,9.95
2022-11-04T11:27:57.687Z,12.93
2022-11-04T11:30:33.050Z,11.20
2022-11-04T11:33:03.887Z,13.05
2022-11-04T11:35:34.862Z,13.23
2022-11-04T11:38:06.236Z,12.43
2022-11-04T11:40:47.564Z,10.13
2022-11-04T11:43:27.756Z,12.02
2022-11-04T11:45:57.891Z,12.82
2022-11-04T11:48:30.680Z,11.73
2022-11-04T11:51:00.242Z,11.93
2022-11-04T11:53:34.319Z,12.05
2022-11-04T11:56:10.632Z,11.23
2022-11-04T12:01:36.258Z,11.00
2022-11-04T12:09:50.773Z,14.65
2022-11-04T12:12:36.598Z,12.38
2022-11-04T12:15:19.296Z,11.10
2022-11-04T12:18:01.532Z,15.60
2022-11-04T12:20:40.175Z,11.30
2022-11-04T12:23:14.045Z,13.30
2022-11-04T12:25:49.071Z,14.10
2022-11-04T12:28:25.682Z,12.57
2022-11-04T12:31:02.980Z,11.95
2022-11-04T12:33:37.543Z,13.82
2022-11-04T12:36:14.782Z,13.27
2022-11-04T12:39:08.263Z,12.02
2022-11-04T12:42:14.303Z,10.00
2022-11-04T12:44:34.541Z,12.77
2022-11-04T12:47:14.210Z,10.73
2022-11-04T12:50:12.285Z,11.93
2022-11-04T12:53:03.164Z,12.05
2022-11-04T12:55:43.826Z,11.63
2022-11-04T12:58:22.319Z,13.73
2022-11-04T13:00:59.514Z,12.07
2022-11-04T13:03:32.202Z,33.55
2022-11-04T13:06:05.763Z,10.60
2022-11-04T13:08:39.001Z,9.40
2022-11-04T13:11:22.737Z,11.98
2022-11-04T13:14:01.615Z,10.75
2022-11-04T13:16:32.057Z,12.13
2022-11-04T13:19:00.489Z,12.27
2022-11-04T13:21:34.446Z,11.70
2022-11-04T13:24:05.011Z,11.23
2022-11-04T13:26:33.640Z,13.38
2022-11-04T13:29:09.015Z,13.00
2022-11-04T13:31:48.091Z,10.63
2022-11-04T13:34:26.499Z,17.45
2022-11-04T13:37:08.679Z,12.40
2022-11-04T13:39:40.479Z,14.65
2022-11-04T13:42:34.290Z,15.18
2022-11-04T13:45:07.873Z,13.15
2022-11-04T13:47:38.126Z,14.70
2022-11-04T13:50:07.474Z,14.93
2022-11-04T13:52:52.557Z,17.80
2022-11-04T13:55:22.020Z,24.83
2022-11-04T13:57:55.614Z,20.20
2022-11-04T14:00:26.113Z,16.08
2022-11-04T14:02:55.400Z,14.90
2022-11-04T14:05:47.725Z,16.80
2022-11-04T14:08:18.206Z,13.55
2022-11-04T14:10:59.380Z,14.55
2022-11-04T14:16:42.503Z,16.73
2022-11-04T14:19:47.576Z,12.98
2022-11-04T14:22:17.341Z,15.55
2022-11-04T14:24:55.948Z,15.02
2022-11-04T14:27:26.438Z,14.63
2022-11-04T14:29:55.692Z,14.50
2022-11-04T14:32:27.801Z,13.98
2022-11-04T14:35:01.102Z,15.95
2022-11-04T14:37:32.325Z,11.98
2022-11-04T14:40:03.852Z,15.52
2022-11-04T14:42:46.781Z,13.75
2022-11-04T14:45:18.753Z,12.38
2022-11-04T14:47:50.185Z,11.95
2022-11-04T14:50:21.460Z,10.45
2022-11-04T14:52:52.037Z,12.73
2022-11-04T14:55:27.305Z,12.98
2022-11-04T14:57:57.273Z,61.03
2022-11-04T15:00:31.606Z,16.15
2022-11-04T15:03:02.174Z,12.55
2022-11-04T15:05:33.671Z,20.73
2022-11-04T15:08:03.474Z,14.82
2022-11-04T15:10:33.323Z,14.57
2022-11-04T15:13:03.066Z,15.10
2022-11-04T15:15:34.645Z,47.90
2022-11-04T15:18:06.765Z,33.28
2022-11-04T15:20:40.158Z,31.98
2022-11-04T15:23:10.901Z,22.83
2022-11-04T15:25:48.395Z,21.35
2022-11-04T15:28:22.306Z,23.20
2022-11-04T15:31:06.581Z,126.65
2022-11-04T15:33:40.209Z,72.50
2022-11-04T15:36:12.000Z,38.28
2022-11-04T15:38:42.781Z,44.42
2022-11-04T15:41:34.367Z,20.27
2022-11-04T15:44:06.056Z,16.70
2022-11-04T15:46:34.551Z,25.83
2022-11-04T15:49:05.685Z,24.20
2022-11-04T15:51:39.310Z,20.40
2022-11-04T15:54:09.419Z,23.92
2022-11-04T15:56:43.938Z,16.48
2022-11-04T15:59:16.377Z,21.50
2022-11-04T16:01:46.923Z,29.73
2022-11-04T16:04:16.688Z,28.67
2022-11-04T16:06:48.080Z,23.30
2022-11-04T16:09:24.892Z,40.08
2022-11-04T16:12:09.259Z,21.27
2022-11-04T16:14:37.394Z,23.67
2022-11-04T16:17:06.115Z,18.15
2022-11-04T16:19:34.652Z,19.98
2022-11-04T16:22:04.899Z,28.33
2022-11-04T16:24:35.047Z,22.35
2022-11-04T16:27:03.730Z,21.38
2022-11-04T16:29:34.879Z,25.25
2022-11-04T16:34:39.070Z,24.98
2022-11-04T16:37:07.575Z,26.77
2022-11-04T16:39:35.853Z,24.10
2022-11-04T16:42:04.461Z,24.55
2022-11-04T16:44:34.378Z,23.58
2022-11-04T16:47:03.224Z,33.50
2022-11-04T16:49:31.543Z,24.40
2022-11-04T16:52:03.311Z,25.98
2022-11-04T16:54:31.552Z,27.77
2022-11-04T16:57:00.333Z,35.38
2022-11-04T16:59:28.473Z,28.42
2022-11-04T17:01:58.330Z,26.95
2022-11-04T17:04:26.669Z,26.20
2022-11-04T17:06:56.472Z,28.83
2022-11-04T17:09:25.285Z,29.98
2022-11-04T17:11:54.883Z,28.15
2022-11-04T17:14:24.074Z,32.88
2022-11-04T17:16:52.448Z,38.58
2022-11-04T17:19:21.890Z,25.38
2022-11-04T17:21:50.427Z,30.65
2022-11-04T17:24:18.790Z,36.50
2022-11-04T17:26:47.304Z,63.83
2022-11-04T17:29:17.514Z,41.95
2022-11-04T17:31:46.111Z,34.65
2022-11-04T17:34:14.158Z,35.42
2022-11-04T17:36:43.960Z,31.50
2022-11-04T17:39:12.068Z,28.70
2022-11-04T17:42:06.369Z,30.75
2022-11-04T17:44:34.544Z,30.33
2022-11-04T17:47:03.016Z,30.52
2022-11-04T17:49:31.159Z,30.23
2022-11-04T17:52:01.264Z,28.98
2022-11-04T17:54:30.739Z,28.90
2022-11-04T17:56:59.330Z,33.00
2022-11-04T17:59:31.112Z,33.10
2022-11-04T18:02:02.383Z,29.75
2022-11-04T18:04:30.676Z,34.15
2022-11-04T18:07:03.129Z,31.17
2022-11-04T18:09:32.800Z,33.70
2022-11-04T18:12:18.642Z,28.60
2022-11-04T18:14:46.807Z,27.42
2022-11-04T18:17:15.167Z,25.10
2022-11-04T18:19:43.401Z,27.17
2022-11-04T18:22:13.163Z,27.20
2022-11-04T18:24:41.386Z,24.23
2022-11-04T18:27:10.620Z,28.10
2022-11-04T18:29:38.805Z,27.75
2022-11-04T18:32:07.499Z,31.15
2022-11-04T18:34:35.870Z,30.08
2022-11-04T18:37:04.265Z,31.02
2022-11-04T18:39:33.846Z,35.13
2022-11-04T18:42:02.672Z,34.00
2022-11-04T18:44:31.134Z,35.53
2022-11-04T18:46:59.636Z,30.42
2022-11-04T18:49:28.106Z,36.38
2022-11-04T18:51:56.775Z,30.38
2022-11-04T18:54:24.884Z,28.90
2022-11-04T18:56:54.739Z,28.85
2022-11-04T18:59:22.838Z,31.73
2022-11-04T19:01:53.404Z,28.67
2022-11-04T19:04:21.716Z,28.40
2022-11-04T19:06:50.252Z,59.92
2022-11-04T19:09:45.399Z,44.72
2022-11-04T19:12:26.517Z,50.17
2022-11-04T19:14:54.806Z,36.38
2022-11-04T19:17:23.573Z,30.95
2022-11-04T19:19:51.738Z,31.55
2022-11-04T19:22:20.301Z,31.13
2022-11-04T19:24:48.341Z,31.63
2022-11-04T19:27:19.799Z,31.17
2022-11-04T19:29:47.945Z,32.28
2022-11-04T19:32:16.411Z,31.92
2022-11-04T19:34:44.665Z,39.95
2022-11-04T19:37:13.565Z,47.08
2022-11-04T19:39:41.623Z,33.40
2022-11-04T19:42:28.572Z,33.28
2022-11-04T19:44:58.056Z,36.42
2022-11-04T19:47:26.533Z,32.95
2022-11-04T19:49:55.510Z,34.25
2022-11-04T19:52:24.034Z,35.60
2022-11-04T19:54:52.183Z,37.30
2022-11-04T19:57:20.615Z,34.97
2022-11-04T19:59:49.865Z,36.95
2022-11-04T20:02:20.050Z,35.55
2022-11-04T20:04:50.053Z,36.50
2022-11-04T20:07:18.544Z,38.28
2022-11-04T20:09:46.580Z,44.63
2022-11-04T20:12:32.247Z,34.88
2022-11-04T20:15:00.351Z,39.28
2022-11-04T20:17:32.266Z,35.85
2022-11-04T20:20:00.347Z,34.97
2022-11-04T20:22:28.740Z,30.60
2022-11-04T20:24:56.964Z,33.83
2022-11-04T20:27:25.360Z,35.95
2022-11-04T20:29:53.704Z,33.15
2022-11-04T20:32:22.220Z,31.45
2022-11-04T20:34:52.280Z,33.97
2022-11-04T20:37:20.766Z,35.13
2022-11-04T20:39:48.944Z,32.20
2022-11-04T20:42:17.424Z,34.30
2022-11-04T20:44:45.524Z,33.05
2022-11-04T20:47:13.858Z,35.47
2022-11-04T20:49:41.978Z,34.55
2022-11-04T20:52:11.698Z,33.63
2022-11-04T20:54:39.838Z,32.28
2022-11-04T20:57:08.206Z,31.80
2022-11-04T20:59:36.279Z,34.72
2022-11-04T21:02:04.773Z,36.03
2022-11-04T21:04:36.140Z,42.72
2022-11-04T21:07:06.891Z,35.40
2022-11-04T21:09:36.296Z,36.80
2022-11-04T21:12:05.389Z,35.55
2022-11-04T21:14:35.180Z,32.00
2022-11-04T21:17:04.048Z,35.00
2022-11-04T21:19:32.365Z,31.98
2022-11-04T21:22:00.844Z,33.75
2022-11-04T21:24:28.930Z,31.15
2022-11-04T21:26:58.796Z,33.92
2022-11-04T21:29:26.897Z,37.55
2022-11-04T21:31:55.334Z,35.97
2022-11-04T21:34:23.635Z,35.88
2022-11-04T21:36:53.093Z,37.33
2022-11-04T21:39:22.595Z,44.35
2022-11-04T21:41:51.033Z,40.38
2022-11-04T21:44:20.612Z,42.70
2022-11-04T21:46:51.286Z,39.95
2022-11-04T21:49:19.700Z,39.25
2022-11-04T21:51:48.104Z,41.80
2022-11-04T21:54:16.297Z,43.28
2022-11-04T21:56:44.638Z,43.72
2022-11-04T21:59:18.104Z,43.95
2022-11-04T22:01:48.527Z,45.90
2022-11-04T22:04:16.784Z,42.75
2022-11-04T22:06:45.506Z,38.85
2022-11-04T22:09:13.802Z,37.25
2022-11-04T22:11:42.263Z,40.78
2022-11-04T22:14:13.222Z,42.33
2022-11-04T22:16:41.672Z,41.25
2022-11-04T22:19:13.618Z,41.42
2022-11-04T22:21:43.828Z,42.00
2022-11-04T22:24:12.543Z,49.13
2022-11-04T22:26:41.247Z,40.97
2022-11-04T22:29:09.699Z,38.00
2022-11-04T22:31:40.315Z,36.63
2022-11-04T22:34:09.816Z,35.20
2022-11-04T22:36:39.887Z,33.45
2022-11-04T22:39:11.807Z,33.33
2022-11-04T22:41:42.553Z,30.13
2022-11-04T22:44:10.637Z,25.55
2022-11-04T22:46:40.104Z,22.63
2022-11-04T22:49:08.630Z,23.25
2022-11-04T22:51:37.114Z,29.63
2022-11-04T22:54:08.424Z,32.58
2022-11-04T22:56:38.131Z,39.00
2022-11-04T22:59:06.448Z,33.67
2022-11-04T23:01:36.980Z,34.05
2022-11-04T23:04:05.899Z,32.35
2022-11-04T23:06:34.360Z,33.92
2022-11-04T23:09:02.409Z,30.95
2022-11-04T23:11:50.545Z,34.55
2022-11-04T23:14:37.512Z,35.28
2022-11-04T23:17:31.546Z,29.98
2022-11-04T23:19:59.720Z,36.00
2022-11-04T23:22:45.615Z,35.42
2022-11-04T23:25:14.590Z,32.92
2022-11-04T23:28:05.260Z,33.42
2022-11-04T23:30:34.521Z,31.08
2022-11-04T23:33:05.880Z,31.23
2022-11-04T23:35:52.879Z,27.48
2022-11-04T23:38:21.664Z,24.38
2022-11-04T23:41:05.889Z,21.15
2022-11-04T23:43:35.925Z,17.27
2022-11-04T23:46:21.151Z,16.48
2022-11-04T23:49:21.530Z,14.18
2022-11-04T23:52:21.541Z,11.75
2022-11-04T23:55:07.656Z,9.07
2022-11-04T23:57:53.013Z,7.05
